createdAt,value
2019-05-28T00:00:52.040Z,3.70
2019-05-28T00:05:59.488Z,4.30
2019-05-28T00:11:06.959Z,4.73
2019-05-28T00:16:14.279Z,4.17
2019-05-28T00:21:21.714Z,5.63
2019-05-28T00:26:29.079Z,10.63
2019-05-28T00:31:36.566Z,7.80
2019-05-28T00:36:43.935Z,7.60
2019-05-28T00:41:52.413Z,7.50
2019-05-28T00:46:59.888Z,7.80
2019-05-28T00:52:07.478Z,7.70
2019-05-28T00:57:16.404Z,8.20
2019-05-28T01:02:23.863Z,8.63
2019-05-28T01:07:31.313Z,10.03
2019-05-28T01:12:38.700Z,9.00
2019-05-28T01:17:46.037Z,10.33
2019-05-28T01:22:53.482Z,10.43
2019-05-28T01:28:00.869Z,9.93
2019-05-28T01:33:08.135Z,10.57
2019-05-28T01:38:15.561Z,10.07
2019-05-28T01:43:23.028Z,8.63
2019-05-28T01:48:30.458Z,9.30
2019-05-28T01:53:37.851Z,9.17
2019-05-28T01:58:45.195Z,10.03
2019-05-28T02:03:52.615Z,8.90
2019-05-28T02:08:59.993Z,9.67
2019-05-28T02:14:07.737Z,8.63
2019-05-28T02:19:15.182Z,9.20
2019-05-28T02:24:22.639Z,8.97
2019-05-28T02:29:30.106Z,9.07
2019-05-28T02:34:37.402Z,9.53
2019-05-28T02:39:44.802Z,9.30
2019-05-28T02:44:52.217Z,10.90
2019-05-28T02:49:59.567Z,10.03
2019-05-28T02:55:07.852Z,10.20
2019-05-28T03:00:17.151Z,10.70
2019-05-28T03:05:24.544Z,10.73
2019-05-28T03:11:01.608Z,10.90
2019-05-28T03:15:51.999Z,10.27
2019-05-28T03:21:02.818Z,9.60
2019-05-28T03:26:10.303Z,9.13
2019-05-28T03:31:17.575Z,7.50
2019-05-28T03:36:29.439Z,8.67
2019-05-28T03:41:36.861Z,8.23
2019-05-28T03:46:44.179Z,8.13
2019-05-28T03:51:51.608Z,8.60
2019-05-28T03:56:58.915Z,8.70
2019-05-28T04:02:20.631Z,8.97
2019-05-28T04:07:15.267Z,9.30
2019-05-28T04:12:22.599Z,10.07
2019-05-28T04:17:30.746Z,10.23
2019-05-28T04:22:38.161Z,9.83
2019-05-28T04:27:45.522Z,10.27
2019-05-28T04:32:52.943Z,10.87
2019-05-28T04:38:00.227Z,11.07
2019-05-28T04:43:07.629Z,11.10
2019-05-28T04:48:15.049Z,12.23
2019-05-28T04:53:22.351Z,11.83
2019-05-28T04:58:29.783Z,11.80
2019-05-28T05:03:37.191Z,10.20
2019-05-28T05:08:44.740Z,11.77
2019-05-28T05:13:52.144Z,11.23
2019-05-28T05:18:59.585Z,12.17
2019-05-28T05:24:06.989Z,11.97
2019-05-28T05:29:14.586Z,11.83
2019-05-28T05:34:21.963Z,13.17
2019-05-28T05:39:29.552Z,13.03
2019-05-28T05:44:37.013Z,12.97
2019-05-28T05:49:44.552Z,13.70
2019-05-28T05:54:51.868Z,13.73
2019-05-28T05:59:59.219Z,13.73
2019-05-28T06:05:06.860Z,13.30
2019-05-28T06:10:14.461Z,13.13
2019-05-28T06:15:21.935Z,12.03
2019-05-28T06:20:29.344Z,9.63
2019-05-28T06:25:36.796Z,9.67
2019-05-28T06:30:44.221Z,8.60
2019-05-28T06:35:51.754Z,8.10
2019-05-28T06:40:59.196Z,7.77
2019-05-28T06:46:06.628Z,8.67
2019-05-28T06:51:13.970Z,9.03
2019-05-28T06:56:22.104Z,10.20
2019-05-28T07:01:29.460Z,11.37
2019-05-28T07:06:36.891Z,10.73
2019-05-28T07:11:44.260Z,11.23
2019-05-28T07:16:53.653Z,9.43
2019-05-28T07:22:00.672Z,8.83
2019-05-28T07:27:07.955Z,9.37
2019-05-28T07:32:15.384Z,8.40
2019-05-28T07:37:22.635Z,9.53
2019-05-28T07:42:33.004Z,8.70
2019-05-28T07:47:39.134Z,8.37
2019-05-28T07:52:46.519Z,7.40
2019-05-28T08:04:12.206Z,6.40
2019-05-28T08:09:19.589Z,5.77
2019-05-28T08:14:27.047Z,5.70
2019-05-28T08:19:34.380Z,5.90
2019-05-28T08:24:41.773Z,5.70
2019-05-28T08:29:49.160Z,6.30
2019-05-28T08:35:05.671Z,6.80
2019-05-28T08:40:09.540Z,6.63
2019-05-28T08:45:17.932Z,7.33
2019-05-28T08:50:34.401Z,6.53
2019-05-28T08:55:34.613Z,6.80
2019-05-28T09:00:45.142Z,6.77
2019-05-28T09:05:52.550Z,6.03
2019-05-28T09:10:59.890Z,5.90
2019-05-28T09:16:07.330Z,6.73
2019-05-28T09:21:14.723Z,6.77
2019-05-28T09:26:22.101Z,7.80
2019-05-28T09:31:29.400Z,8.37
2019-05-28T09:36:36.872Z,8.10
2019-05-28T09:41:44.300Z,8.33
2019-05-28T09:46:51.732Z,7.77
2019-05-28T09:51:58.975Z,7.27
2019-05-28T09:57:06.324Z,8.37
2019-05-28T10:02:13.919Z,7.30
2019-05-28T10:07:21.370Z,8.10
2019-05-28T10:12:28.792Z,7.90
2019-05-28T10:17:36.232Z,7.50
2019-05-28T10:22:43.624Z,8.17
2019-05-28T10:28:00.970Z,7.23
2019-05-28T10:33:00.278Z,7.23
2019-05-28T10:38:14.474Z,7.70
2019-05-28T10:43:16.685Z,8.73
2019-05-28T10:48:24.103Z,6.10
2019-05-28T10:53:31.437Z,6.70
2019-05-28T10:58:38.715Z,6.57
2019-05-28T11:03:47.205Z,6.33
2019-05-28T11:08:54.867Z,6.37
2019-05-28T11:14:02.287Z,5.87
2019-05-28T11:19:09.684Z,5.60
2019-05-28T11:24:17.019Z,5.70
2019-05-28T11:29:24.295Z,5.40
2019-05-28T11:34:32.704Z,5.10
2019-05-28T11:39:40.140Z,5.13
2019-05-28T11:44:47.576Z,5.40
2019-05-28T11:49:55.029Z,5.10
2019-05-28T11:55:02.522Z,7.27
2019-05-28T12:00:10.964Z,5.23
2019-05-28T12:05:19.096Z,4.70
2019-05-28T12:10:27.270Z,4.30
2019-05-28T12:15:34.718Z,5.50
2019-05-28T12:20:42.073Z,5.27
2019-05-28T12:25:49.474Z,5.20
2019-05-28T12:30:58.018Z,5.00
2019-05-28T12:36:05.499Z,6.40
2019-05-28T12:41:12.913Z,5.87
2019-05-28T12:46:20.242Z,6.00
2019-05-28T12:51:27.551Z,4.77
2019-05-28T12:56:34.872Z,5.30
2019-05-28T13:01:42.294Z,4.57
2019-05-28T13:06:49.671Z,4.93
2019-05-28T13:11:57.039Z,4.90
2019-05-28T13:17:04.437Z,4.33
2019-05-28T13:22:11.876Z,5.70
2019-05-28T13:27:19.600Z,6.40
2019-05-28T13:32:26.932Z,5.43
2019-05-28T13:37:34.228Z,6.70
2019-05-28T13:42:41.670Z,6.67
2019-05-28T13:47:49.114Z,5.83
2019-05-28T13:52:56.526Z,7.10
2019-05-28T13:58:03.984Z,7.23
2019-05-28T14:03:11.515Z,6.87
2019-05-28T14:08:18.767Z,7.93
2019-05-28T14:13:26.081Z,6.80
2019-05-28T14:18:33.457Z,7.60
2019-05-28T14:23:40.886Z,8.07
2019-05-28T14:28:48.188Z,7.10
2019-05-28T14:33:55.627Z,7.43
2019-05-28T14:39:04.013Z,6.90
2019-05-28T14:44:11.615Z,6.83
2019-05-28T14:49:18.966Z,6.50
2019-05-28T14:54:26.374Z,6.53
2019-05-28T14:59:33.810Z,7.43
2019-05-28T15:04:41.223Z,7.50
2019-05-28T15:09:48.477Z,7.33
2019-05-28T15:14:55.780Z,6.77
2019-05-28T15:20:03.222Z,9.27
2019-05-28T15:25:10.967Z,8.83
2019-05-28T15:30:18.754Z,7.03
2019-05-28T15:35:26.181Z,8.17
2019-05-28T15:40:33.514Z,7.80
2019-05-28T15:45:40.930Z,7.50
2019-05-28T15:50:48.420Z,8.37
2019-05-28T15:55:55.854Z,7.50
2019-05-28T16:01:03.166Z,8.43
2019-05-28T16:06:10.541Z,7.97
2019-05-28T16:11:17.870Z,9.80
2019-05-28T16:16:25.287Z,10.10
2019-05-28T16:21:32.669Z,9.27
2019-05-28T16:26:40.083Z,9.57
2019-05-28T16:31:47.536Z,9.47
2019-05-28T16:36:54.944Z,8.90
2019-05-28T16:42:02.326Z,10.03
2019-05-28T16:47:16.963Z,10.20
2019-05-28T16:52:18.816Z,10.27
2019-05-28T16:57:26.249Z,11.03
2019-05-28T17:02:33.529Z,11.30
2019-05-28T17:07:40.884Z,12.17
2019-05-28T17:12:48.153Z,13.00
2019-05-28T17:17:55.530Z,10.90
2019-05-28T17:23:02.889Z,11.80
2019-05-28T17:28:10.309Z,11.37
2019-05-28T17:33:17.659Z,11.70
2019-05-28T17:38:25.219Z,11.57
2019-05-28T17:43:32.714Z,10.60
2019-05-28T17:48:40.152Z,10.70
2019-05-28T17:53:47.592Z,10.63
2019-05-28T17:58:55.056Z,11.40
2019-05-28T18:04:02.505Z,13.37
2019-05-28T18:09:11.403Z,16.70
2019-05-28T18:14:18.679Z,16.63
2019-05-28T18:19:26.124Z,15.13
2019-05-28T18:24:33.473Z,13.20
2019-05-28T18:29:40.834Z,13.57
2019-05-28T18:34:48.283Z,13.13
2019-05-28T18:39:55.681Z,11.77
2019-05-28T18:45:03.128Z,11.93
2019-05-28T18:50:12.212Z,12.50
2019-05-28T18:55:22.973Z,11.67
2019-05-28T19:00:28.963Z,11.77
2019-05-28T19:05:36.554Z,12.50
2019-05-28T19:10:43.921Z,11.40
2019-05-28T19:15:51.437Z,12.37
2019-05-28T19:20:58.869Z,12.93
2019-05-28T19:26:06.293Z,12.80
2019-05-28T19:31:13.963Z,13.30
2019-05-28T19:36:21.722Z,13.63
2019-05-28T19:41:29.144Z,13.13
2019-05-28T19:46:36.570Z,13.47
2019-05-28T19:51:43.974Z,12.97
2019-05-28T19:56:51.441Z,13.07
2019-05-28T20:01:58.896Z,11.53
2019-05-28T20:07:06.411Z,12.80
2019-05-28T20:12:13.687Z,12.17
2019-05-28T20:17:21.121Z,13.20
2019-05-28T20:22:28.504Z,12.23
2019-05-28T20:27:35.959Z,12.80
2019-05-28T20:32:43.393Z,12.73
2019-05-28T20:37:50.713Z,10.87
2019-05-28T20:42:58.561Z,10.83
2019-05-28T20:48:06.706Z,10.43
2019-05-28T20:53:14.386Z,8.83
2019-05-28T20:58:21.708Z,9.47
2019-05-28T21:03:29.122Z,9.67
2019-05-28T21:08:36.501Z,9.10
2019-05-28T21:13:43.873Z,9.63
2019-05-28T21:18:51.196Z,9.20
2019-05-28T21:23:58.532Z,8.60
2019-05-28T21:29:06.011Z,8.60
2019-05-28T21:34:13.290Z,8.77
2019-05-28T21:39:20.614Z,9.17
2019-05-28T21:44:28.154Z,10.00
2019-05-28T21:49:35.460Z,10.00
2019-05-28T21:54:42.765Z,9.63
2019-05-28T21:59:50.482Z,9.70
2019-05-28T22:05:02.047Z,10.47
2019-05-28T22:10:08.581Z,9.20
2019-05-28T22:15:16.513Z,9.63
2019-05-28T22:20:23.831Z,10.23
2019-05-28T22:25:31.153Z,9.80
2019-05-28T22:30:38.434Z,9.43
2019-05-28T22:35:45.910Z,9.87
2019-05-28T22:40:53.221Z,9.00
2019-05-28T22:46:01.288Z,8.13
2019-05-28T22:51:09.832Z,7.80
2019-05-28T22:56:17.205Z,6.77
2019-05-28T23:01:24.605Z,6.87
2019-05-28T23:06:31.965Z,6.83
2019-05-28T23:11:43.302Z,6.07
2019-05-28T23:16:50.653Z,6.57
2019-05-28T23:21:58.079Z,6.53
2019-05-28T23:27:05.556Z,5.80
2019-05-28T23:32:12.976Z,6.03
2019-05-28T23:37:20.371Z,6.10
2019-05-28T23:42:27.834Z,6.67
2019-05-28T23:47:35.155Z,7.00
2019-05-28T23:52:42.592Z,6.90
2019-05-28T23:57:49.928Z,6.80
